Time,TemperatureF,DewpointF,PressureIn,WindDirection,WindDirectionDegrees,WindSpeedMPH,WindSpeedGustMPH,Humidity,HourlyPrecipIn,Conditions,Clouds,dailyrainin,SoftwareType,DateUTC
2017-05-26 00:01:00,76.5,75.3,29.90,East,80,0.0,0.0,96,0.00,RA,,0.00,WeatherDisplay:10.37,2017-05-26 04:01:00,
2017-05-26 00:06:00,76.4,75.2,29.91,East,80,0.0,0.0,96,0.00,RA,,0.00,WeatherDisplay:10.37,2017-05-26 04:06:00,
2017-05-26 00:11:00,76.4,75.2,29.91,East,80,0.0,0.0,96,0.00,CLR,,0.00,WeatherDisplay:10.37,2017-05-26 04:11:00,
2017-05-26 00:16:00,76.3,75.1,29.91,East,80,0.0,0.0,96,0.00,CLR,,0.00,WeatherDisplay:10.37,2017-05-26 04:16:00,
2017-05-26 00:21:00,76.3,75.1,29.91,East,80,0.0,0.0,96,0.00,CLR,,0.00,WeatherDisplay:10.37,2017-05-26 04:21:00,
2017-05-26 00:26:00,76.2,75.0,29.91,East,80,0.0,0.0,96,0.00,CLR,,0.00,WeatherDisplay:10.37,2017-05-26 04:26:00,
2017-05-26 00:31:00,76.2,75.0,29.91,East,80,0.0,0.0,96,0.00,CLR,,0.00,WeatherDisplay:10.37,2017-05-26 04:31:00,
2017-05-26 00:36:00,76.3,75.1,29.91,East,80,0.0,0.0,96,0.00,CLR,,0.00,WeatherDisplay:10.37,2017-05-26 04:36:00,
2017-05-26 00:41:00,76.3,75.1,29.91,East,80,0.0,0.0,96,0.00,CLR,,0.00,WeatherDisplay:10.37,2017-05-26 04:41:00,
2017-05-26 00:46:00,76.1,74.9,29.91,East,80,0.0,0.0,96,0.00,CLR,,0.01,WeatherDisplay:10.37,2017-05-26 04:46:00,
2017-05-26 00:51:00,76.1,74.9,29.91,East,80,0.0,0.0,96,0.01,RA,,0.01,WeatherDisplay:10.37,2017-05-26 04:51:00,
2017-05-26 00:56:00,76.0,74.8,29.91,East,80,0.0,0.0,96,0.01,RA,,0.01,WeatherDisplay:10.37,2017-05-26 04:56:00,
2017-05-26 01:01:00,75.8,74.6,29.91,East,80,0.0,0.0,96,0.01,,,0.01,WeatherDisplay:10.37,2017-05-26 05:01:00,
2017-05-26 01:06:00,75.8,74.6,29.91,East,80,0.0,0.0,96,0.01,,,0.01,WeatherDisplay:10.37,2017-05-26 05:06:00,
2017-05-26 01:11:00,75.7,74.5,29.91,East,80,0.0,0.0,96,0.01,,,0.01,WeatherDisplay:10.37,2017-05-26 05:11:00,
2017-05-26 01:16:00,75.6,74.4,29.91,East,80,0.0,0.0,96,0.01,,,0.01,WeatherDisplay:10.37,2017-05-26 05:16:00,
2017-05-26 01:21:00,75.5,74.3,29.91,East,80,0.0,0.0,96,0.01,,,0.01,WeatherDisplay:10.37,2017-05-26 05:21:00,
2017-05-26 01:26:00,75.3,74.1,29.91,East,80,0.0,0.0,96,0.01,,,0.01,WeatherDisplay:10.37,2017-05-26 05:26:00,
2017-05-26 01:31:00,75.3,74.1,29.91,East,80,0.0,0.0,96,0.01,,,0.01,WeatherDisplay:10.37,2017-05-26 05:31:00,
2017-05-26 01:36:00,75.4,74.2,29.91,East,80,0.0,0.0,96,0.01,,,0.01,WeatherDisplay:10.37,2017-05-26 05:36:00,
2017-05-26 01:41:00,75.5,74.3,29.91,East,80,0.0,0.0,96,0.01,,,0.01,WeatherDisplay:10.37,2017-05-26 05:41:00,
2017-05-26 01:46:00,75.4,74.2,29.91,East,80,0.0,0.0,96,0.01,,,0.01,WeatherDisplay:10.37,2017-05-26 05:46:00,
2017-05-26 01:51:00,75.5,74.3,29.91,East,80,0.0,0.0,96,0.00,CLR,,0.01,WeatherDisplay:10.37,2017-05-26 05:51:00,
2017-05-26 01:56:00,75.5,74.3,29.91,East,80,0.0,0.0,96,0.00,CLR,,0.01,WeatherDisplay:10.37,2017-05-26 05:56:00,
2017-05-26 02:01:00,75.5,74.3,29.91,East,80,0.0,0.0,96,0.00,CLR,,0.01,WeatherDisplay:10.37,2017-05-26 06:01:00,
2017-05-26 02:06:00,75.3,74.1,29.91,East,80,0.0,0.0,96,0.00,CLR,,0.01,WeatherDisplay:10.37,2017-05-26 06:06:00,
2017-05-26 02:11:00,75.2,74.0,29.91,East,80,0.0,0.0,96,0.00,CLR,,0.01,WeatherDisplay:10.37,2017-05-26 06:11:00,
2017-05-26 02:16:00,75.2,74.0,29.91,East,80,0.0,0.0,96,0.00,CLR,,0.01,WeatherDisplay:10.37,2017-05-26 06:16:00,
2017-05-26 02:21:00,75.1,73.9,29.91,East,80,0.0,0.0,96,0.00,CLR,,0.01,WeatherDisplay:10.37,2017-05-26 06:21:00,
2017-05-26 02:26:00,75.0,73.8,29.91,East,80,0.0,0.0,96,0.00,CLR,,0.01,WeatherDisplay:10.37,2017-05-26 06:26:00,
2017-05-26 02:31:00,75.0,73.8,29.91,East,80,0.0,0.0,96,0.00,CLR,,0.01,WeatherDisplay:10.37,2017-05-26 06:31:00,
2017-05-26 02:36:00,75.1,73.9,29.91,East,80,0.0,0.0,96,0.00,CLR,,0.01,WeatherDisplay:10.37,2017-05-26 06:36:00,
2017-05-26 02:41:00,75.1,73.9,29.90,East,80,0.0,0.0,96,0.00,CLR,,0.01,WeatherDisplay:10.37,2017-05-26 06:41:00,
2017-05-26 02:46:00,75.1,73.9,29.90,East,80,0.0,0.0,96,0.00,CLR,,0.01,WeatherDisplay:10.37,2017-05-26 06:46:00,
2017-05-26 02:51:00,75.2,74.0,29.90,East,80,0.0,0.0,96,0.00,CLR,,0.01,WeatherDisplay:10.37,2017-05-26 06:51:00,
2017-05-26 02:56:00,75.0,73.8,29.90,East,80,0.0,0.0,96,0.00,CLR,,0.01,WeatherDisplay:10.37,2017-05-26 06:56:00,
2017-05-26 03:01:00,74.6,73.4,29.90,East,80,0.0,0.0,96,0.00,CLR,,0.01,WeatherDisplay:10.37,2017-05-26 07:01:00,
2017-05-26 03:06:00,74.0,72.8,29.90,East,80,0.0,0.0,96,0.00,CLR,,0.01,WeatherDisplay:10.37,2017-05-26 07:06:00,
2017-05-26 03:11:00,73.7,72.5,29.90,East,80,0.0,0.0,96,0.00,CLR,,0.01,WeatherDisplay:10.37,2017-05-26 07:11:00,
2017-05-26 03:16:00,73.6,72.4,29.90,East,80,0.0,0.0,96,0.00,CLR,,0.01,WeatherDisplay:10.37,2017-05-26 07:16:00,
2017-05-26 03:21:00,73.7,72.5,29.90,East,80,0.0,0.0,96,0.00,CLR,,0.01,WeatherDisplay:10.37,2017-05-26 07:21:00,
2017-05-26 03:26:00,73.7,72.5,29.90,East,80,0.0,0.0,96,0.00,CLR,,0.01,WeatherDisplay:10.37,2017-05-26 07:26:00,
2017-05-26 03:31:00,73.8,72.6,29.90,SSW,199,0.0,0.0,96,0.00,CLR,,0.01,WeatherDisplay:10.37,2017-05-26 07:31:00,
2017-05-26 03:36:00,73.9,72.7,29.90,South,182,0.0,0.0,96,0.00,CLR,,0.01,WeatherDisplay:10.37,2017-05-26 07:36:00,
2017-05-26 03:41:00,73.9,72.7,29.90,South,182,0.0,0.0,96,0.00,CLR,,0.01,WeatherDisplay:10.37,2017-05-26 07:41:00,
2017-05-26 03:46:00,73.9,72.4,29.90,NE,49,0.0,0.0,95,0.00,CLR,,0.01,WeatherDisplay:10.37,2017-05-26 07:46:00,
2017-05-26 03:51:00,74.0,72.5,29.91,South,178,1.2,0.0,95,0.00,CLR,,0.01,WeatherDisplay:10.37,2017-05-26 07:51:00,
2017-05-26 04:01:00,74.0,72.5,29.91,ESE,107,0.0,0.0,95,0.00,CLR,,0.01,WeatherDisplay:10.37,2017-05-26 08:01:00,
2017-05-26 04:06:00,73.9,72.4,29.91,ESE,107,0.0,0.0,95,0.00,CLR,,0.01,WeatherDisplay:10.37,2017-05-26 08:06:00,
2017-05-26 04:11:00,74.0,72.5,29.91,ESE,107,0.0,0.0,95,0.00,CLR,,0.01,WeatherDisplay:10.37,2017-05-26 08:11:00,
2017-05-26 04:16:00,74.1,72.6,29.91,NE,49,0.0,0.0,95,0.00,CLR,,0.01,WeatherDisplay:10.37,2017-05-26 08:16:00,
2017-05-26 04:21:00,74.0,72.5,29.91,NE,51,0.0,0.0,95,0.00,CLR,,0.01,WeatherDisplay:10.37,2017-05-26 08:21:00,
2017-05-26 04:26:00,73.8,72.3,29.92,NE,53,0.0,0.0,95,0.00,CLR,,0.01,WeatherDisplay:10.37,2017-05-26 08:26:00,
2017-05-26 04:31:00,73.7,72.2,29.92,ENE,64,0.0,0.0,95,0.00,CLR,,0.01,WeatherDisplay:10.37,2017-05-26 08:31:00,
2017-05-26 04:36:00,73.4,71.9,29.92,ENE,64,0.0,0.0,95,0.00,CLR,,0.01,WeatherDisplay:10.37,2017-05-26 08:36:00,
2017-05-26 04:41:00,73.3,71.8,29.92,ENE,61,0.0,0.0,95,0.00,CLR,,0.01,WeatherDisplay:10.37,2017-05-26 08:41:00,
2017-05-26 04:46:00,73.1,71.6,29.92,North,355,0.0,0.0,95,0.00,CLR,,0.01,WeatherDisplay:10.37,2017-05-26 08:46:00,
2017-05-26 04:51:00,72.9,71.4,29.92,North,5,0.0,0.0,95,0.00,CLR,,0.01,WeatherDisplay:10.37,2017-05-26 08:51:00,
2017-05-26 04:56:00,72.9,71.7,29.92,North,360,0.0,0.0,96,0.00,CLR,,0.01,WeatherDisplay:10.37,2017-05-26 08:56:00,
2017-05-26 05:01:00,72.8,71.3,29.92,NNW,340,0.0,0.0,95,0.00,CLR,,0.01,WeatherDisplay:10.37,2017-05-26 09:01:00,
2017-05-26 05:06:00,72.8,71.3,29.92,NNW,340,0.0,0.0,95,0.00,CLR,,0.01,WeatherDisplay:10.37,2017-05-26 09:06:00,
2017-05-26 05:11:00,72.6,71.1,29.92,NNW,340,0.0,0.0,95,0.00,CLR,,0.01,WeatherDisplay:10.37,2017-05-26 09:11:00,
2017-05-26 05:16:00,72.5,71.0,29.93,NNW,340,0.0,0.0,95,0.00,CLR,,0.01,WeatherDisplay:10.37,2017-05-26 09:16:00,
2017-05-26 05:21:00,72.4,70.9,29.93,NNW,340,0.0,0.0,95,0.00,CLR,,0.01,WeatherDisplay:10.37,2017-05-26 09:21:00,
2017-05-26 05:26:00,72.3,70.8,29.93,NNW,340,0.0,0.0,95,0.00,CLR,,0.01,WeatherDisplay:10.37,2017-05-26 09:26:00,
2017-05-26 05:31:00,72.0,70.5,29.93,NNW,340,0.0,0.0,95,0.00,CLR,,0.01,WeatherDisplay:10.37,2017-05-26 09:31:00,
2017-05-26 05:32:00,71.9,70.4,29.93,NNW,340,0.0,0.0,95,0.00,CLR,,0.01,WeatherDisplay:10.37,2017-05-26 09:32:00,
2017-05-26 05:37:00,71.6,70.1,29.93,NNW,340,0.0,0.0,95,0.00,CLR,,0.01,WeatherDisplay:10.37,2017-05-26 09:37:00,
2017-05-26 05:42:00,71.3,69.8,29.93,NNW,340,0.0,0.0,95,0.00,CLR,,0.01,WeatherDisplay:10.37,2017-05-26 09:42:00,
2017-05-26 05:47:00,70.8,69.3,29.93,NNW,340,0.0,0.0,95,0.00,CLR,,0.01,WeatherDisplay:10.37,2017-05-26 09:47:00,
2017-05-26 05:52:00,70.4,68.9,29.94,NNW,340,0.0,0.0,95,0.00,CLR,,0.01,WeatherDisplay:10.37,2017-05-26 09:52:00,
2017-05-26 05:57:00,69.9,68.1,29.94,NNW,340,0.0,0.0,94,0.00,CLR,,0.01,WeatherDisplay:10.37,2017-05-26 09:57:00,
2017-05-26 06:03:00,69.7,67.9,29.95,NNW,340,0.0,0.0,94,0.00,CLR,,0.01,WeatherDisplay:10.37,2017-05-26 10:03:00,
2017-05-26 06:08:00,69.5,67.7,29.95,NNW,340,0.0,0.0,94,0.00,CLR,,0.01,WeatherDisplay:10.37,2017-05-26 10:08:00,
2017-05-26 06:13:00,69.4,67.6,29.96,NNW,340,0.0,0.0,94,0.00,CLR,,0.01,WeatherDisplay:10.37,2017-05-26 10:13:00,
2017-05-26 06:18:00,69.3,67.5,29.96,NNW,340,0.0,0.0,94,0.00,CLR,,0.01,WeatherDisplay:10.37,2017-05-26 10:18:00,
2017-05-26 06:23:00,69.2,67.4,29.96,NNW,340,0.0,0.0,94,0.00,CLR,,0.01,WeatherDisplay:10.37,2017-05-26 10:23:00,
2017-05-26 06:28:00,69.1,67.0,29.97,NNW,340,0.0,0.0,93,0.00,CLR,,0.01,WeatherDisplay:10.37,2017-05-26 10:28:00,
2017-05-26 06:33:00,69.0,66.9,29.97,NNW,340,0.0,0.0,93,0.00,CLR,,0.01,WeatherDisplay:10.37,2017-05-26 10:33:00,
2017-05-26 06:38:00,69.0,66.9,29.97,NNW,340,0.0,0.0,93,0.00,CLR,,0.01,WeatherDisplay:10.37,2017-05-26 10:38:00,
2017-05-26 06:43:00,68.9,66.8,29.97,NNW,340,0.0,0.0,93,0.00,CLR,,0.01,WeatherDisplay:10.37,2017-05-26 10:43:00,
2017-05-26 06:48:00,68.9,66.8,29.97,NNW,340,0.0,0.0,93,0.00,CLR,,0.01,WeatherDisplay:10.37,2017-05-26 10:48:00,
2017-05-26 06:53:00,68.8,66.7,29.98,NNW,340,0.0,0.0,93,0.00,CLR,,0.01,WeatherDisplay:10.37,2017-05-26 10:53:00,
2017-05-26 06:58:00,68.8,66.7,29.98,NNW,340,0.0,0.0,93,0.00,CLR,,0.01,WeatherDisplay:10.37,2017-05-26 10:58:00,
2017-05-26 07:03:00,68.8,66.7,29.98,NNW,340,0.0,0.0,93,0.00,CLR,,0.01,WeatherDisplay:10.37,2017-05-26 11:03:00,
2017-05-26 07:08:00,68.7,66.3,29.98,North,355,0.0,0.0,92,0.00,CLR,,0.01,WeatherDisplay:10.37,2017-05-26 11:08:00,
2017-05-26 07:13:00,68.7,66.3,29.99,North,355,0.0,0.0,92,0.00,CLR,,0.01,WeatherDisplay:10.37,2017-05-26 11:13:00,
2017-05-26 07:18:00,68.6,65.9,29.99,North,355,0.0,0.0,91,0.00,CLR,,0.01,WeatherDisplay:10.37,2017-05-26 11:18:00,
2017-05-26 07:23:00,68.5,65.8,29.99,North,355,0.0,0.0,91,0.00,CLR,,0.01,WeatherDisplay:10.37,2017-05-26 11:23:00,
2017-05-26 07:28:00,68.3,65.3,29.99,North,360,0.0,0.0,90,0.00,CLR,,0.01,WeatherDisplay:10.37,2017-05-26 11:28:00,
2017-05-26 07:33:00,68.4,65.0,29.99,North,5,0.0,0.0,89,0.00,CLR,,0.01,WeatherDisplay:10.37,2017-05-26 11:33:00,
2017-05-26 07:38:00,68.4,65.0,29.99,North,5,0.0,0.0,89,0.00,CLR,,0.01,WeatherDisplay:10.37,2017-05-26 11:38:00,
2017-05-26 07:43:00,68.5,64.8,30.00,North,5,0.0,0.0,88,0.00,CLR,,0.01,WeatherDisplay:10.37,2017-05-26 11:43:00,
2017-05-26 07:48:00,69.0,65.3,30.00,North,5,0.0,0.0,88,0.00,CLR,,0.01,WeatherDisplay:10.37,2017-05-26 11:48:00,
2017-05-26 07:53:00,69.3,65.3,30.00,North,5,0.0,0.0,87,0.00,CLR,,0.01,WeatherDisplay:10.37,2017-05-26 11:53:00,
2017-05-26 07:58:00,69.7,65.3,30.00,North,5,0.0,0.0,86,0.00,CLR,,0.01,WeatherDisplay:10.37,2017-05-26 11:58:00,
2017-05-26 08:03:00,70.2,65.8,30.00,North,5,0.0,0.0,86,0.00,CLR,,0.01,WeatherDisplay:10.37,2017-05-26 12:03:00,
2017-05-26 08:08:00,70.7,65.6,30.00,North,5,0.0,0.0,84,0.00,CLR,,0.01,WeatherDisplay:10.37,2017-05-26 12:08:00,
2017-05-26 08:13:00,71.1,65.7,30.00,North,5,0.0,0.0,83,0.00,CLR,,0.01,WeatherDisplay:10.37,2017-05-26 12:13:00,
2017-05-26 08:18:00,71.5,65.7,30.00,North,5,0.0,0.0,82,0.00,CLR,,0.01,WeatherDisplay:10.37,2017-05-26 12:18:00,
2017-05-26 08:23:00,72.0,66.2,30.00,North,5,0.0,0.0,82,0.00,CLR,,0.01,WeatherDisplay:10.37,2017-05-26 12:23:00,
2017-05-26 08:28:00,72.4,65.9,30.01,North,5,0.0,0.0,80,0.00,CLR,,0.01,WeatherDisplay:10.37,2017-05-26 12:28:00,
2017-05-26 08:33:00,72.7,65.8,30.01,North,5,0.0,0.0,79,0.00,CLR,,0.01,WeatherDisplay:10.37,2017-05-26 12:33:00,
2017-05-26 08:38:00,73.0,65.7,30.01,North,5,0.0,0.0,78,0.00,CLR,,0.01,WeatherDisplay:10.37,2017-05-26 12:38:00,
2017-05-26 08:48:00,73.5,65.5,30.01,NNW,346,0.0,0.0,76,0.00,CLR,,0.01,WeatherDisplay:10.37,2017-05-26 12:48:00,
2017-05-26 08:53:00,73.8,65.0,30.01,North,355,0.0,0.0,74,0.00,CLR,,0.01,WeatherDisplay:10.37,2017-05-26 12:53:00,
2017-05-26 08:58:00,74.1,65.7,30.01,North,355,0.0,0.0,75,0.00,CLR,,0.01,WeatherDisplay:10.37,2017-05-26 12:58:00,
2017-05-26 09:03:00,74.3,65.1,30.01,North,350,0.0,0.0,73,0.00,CLR,,0.01,WeatherDisplay:10.37,2017-05-26 13:03:00,
2017-05-26 09:08:00,74.3,64.7,30.02,North,360,5.8,5.8,72,0.00,CLR,,0.01,WeatherDisplay:10.37,2017-05-26 13:08:00,
2017-05-26 09:13:00,74.5,65.3,30.02,North,360,2.3,2.3,73,0.00,CLR,,0.01,WeatherDisplay:10.37,2017-05-26 13:13:00,
2017-05-26 09:18:00,75.0,65.8,30.02,North,360,0.0,0.0,73,0.00,CLR,,0.01,WeatherDisplay:10.37,2017-05-26 13:18:00,
2017-05-26 09:23:00,75.7,66.0,30.02,North,355,2.3,0.0,72,0.00,CLR,,0.01,WeatherDisplay:10.37,2017-05-26 13:23:00,
2017-05-26 09:28:00,76.1,66.4,30.02,North,355,1.2,0.0,72,0.00,CLR,,0.01,WeatherDisplay:10.37,2017-05-26 13:28:00,
2017-05-26 09:33:00,76.7,66.6,30.02,North,355,0.0,0.0,71,0.00,CLR,,0.01,WeatherDisplay:10.37,2017-05-26 13:33:00,
2017-05-26 09:38:00,77.0,66.9,30.02,North,355,0.0,0.0,71,0.00,CLR,,0.01,WeatherDisplay:10.37,2017-05-26 13:38:00,
2017-05-26 09:43:00,77.2,65.4,30.02,North,355,2.3,2.3,67,0.00,CLR,,0.01,WeatherDisplay:10.37,2017-05-26 13:43:00,
2017-05-26 09:48:00,77.6,65.8,30.02,North,355,1.0,0.0,67,0.00,CLR,,0.01,WeatherDisplay:10.37,2017-05-26 13:48:00,
2017-05-26 09:53:00,78.0,66.2,30.02,North,355,0.0,0.0,67,0.00,CLR,,0.01,WeatherDisplay:10.37,2017-05-26 13:53:00,
2017-05-26 09:58:00,78.5,65.8,30.02,North,355,0.0,0.0,65,0.00,CLR,,0.01,WeatherDisplay:10.37,2017-05-26 13:58:00,
2017-05-26 10:03:00,78.7,65.9,30.02,North,355,0.0,0.0,65,0.00,CLR,,0.01,WeatherDisplay:10.37,2017-05-26 14:03:00,
2017-05-26 10:08:00,79.1,66.3,30.02,North,355,0.0,0.0,65,0.00,CLR,,0.01,WeatherDisplay:10.37,2017-05-26 14:08:00,
2017-05-26 10:13:00,79.7,65.5,30.02,North,355,0.0,0.0,62,0.00,CLR,,0.01,WeatherDisplay:10.37,2017-05-26 14:13:00,
2017-05-26 10:18:00,80.1,65.9,30.02,NNW,341,0.0,0.0,62,0.00,CLR,,0.01,WeatherDisplay:10.37,2017-05-26 14:18:00,
2017-05-26 10:23:00,80.4,64.8,30.02,NNW,341,0.0,0.0,59,0.00,CLR,,0.01,WeatherDisplay:10.37,2017-05-26 14:23:00,
2017-05-26 10:28:00,80.4,64.3,30.02,North,355,3.5,3.5,58,0.00,CLR,,0.01,WeatherDisplay:10.37,2017-05-26 14:28:00,
2017-05-26 10:33:00,80.8,65.6,30.02,North,355,3.5,3.5,60,0.00,CLR,,0.01,WeatherDisplay:10.37,2017-05-26 14:33:00,
2017-05-26 10:38:00,80.9,65.2,30.02,NNW,339,1.2,0.0,59,0.00,CLR,,0.01,WeatherDisplay:10.37,2017-05-26 14:38:00,
2017-05-26 10:43:00,81.3,65.1,30.02,NNW,340,3.5,3.5,58,0.00,CLR,,0.01,WeatherDisplay:10.37,2017-05-26 14:43:00,
2017-05-26 10:48:00,81.3,65.6,30.01,NNW,342,0.0,0.0,59,0.00,CLR,,0.01,WeatherDisplay:10.37,2017-05-26 14:48:00,
2017-05-26 10:53:00,81.5,65.8,30.02,NNW,342,2.3,2.3,59,0.00,CLR,,0.01,WeatherDisplay:10.37,2017-05-26 14:53:00,
2017-05-26 10:58:00,81.8,66.1,30.02,NNW,333,3.0,3.0,59,0.00,CLR,,0.01,WeatherDisplay:10.37,2017-05-26 14:58:00,
2017-05-26 11:03:00,82.1,65.9,30.02,NNW,333,0.0,0.0,58,0.00,CLR,,0.01,WeatherDisplay:10.37,2017-05-26 15:03:00,
2017-05-26 11:08:00,82.5,66.2,30.02,NNW,333,0.0,0.0,58,0.00,CLR,,0.01,WeatherDisplay:10.37,2017-05-26 15:08:00,
2017-05-26 11:13:00,83.0,67.2,30.02,NNW,333,0.0,0.0,59,0.00,CLR,,0.01,WeatherDisplay:10.37,2017-05-26 15:13:00,
2017-05-26 11:18:00,83.5,67.2,30.01,NNW,333,0.0,0.0,58,0.00,CLR,,0.01,WeatherDisplay:10.37,2017-05-26 15:18:00,
2017-05-26 11:23:00,84.0,67.1,30.01,NNW,333,0.0,0.0,57,0.00,CLR,,0.01,WeatherDisplay:10.37,2017-05-26 15:23:00,
2017-05-26 11:28:00,84.5,68.1,30.01,NNW,333,0.0,0.0,58,0.00,CLR,,0.01,WeatherDisplay:10.37,2017-05-26 15:28:00,
2017-05-26 11:33:00,85.0,68.1,30.01,NNW,333,0.0,0.0,57,0.00,CLR,,0.01,WeatherDisplay:10.37,2017-05-26 15:33:00,
2017-05-26 11:38:00,84.9,66.9,30.01,NNW,333,0.0,0.0,55,0.00,CLR,,0.01,WeatherDisplay:10.37,2017-05-26 15:38:00,
2017-05-26 11:43:00,84.1,66.7,30.01,NNW,333,0.0,0.0,56,0.00,CLR,,0.01,WeatherDisplay:10.37,2017-05-26 15:43:00,
2017-05-26 11:48:00,84.3,67.4,30.01,NNW,333,0.0,0.0,57,0.00,CLR,,0.01,WeatherDisplay:10.37,2017-05-26 15:48:00,
2017-05-26 11:53:00,84.8,67.9,30.02,NNW,333,0.0,0.0,57,0.00,CLR,,0.01,WeatherDisplay:10.37,2017-05-26 15:53:00,
2017-05-26 11:58:00,85.3,68.8,30.01,NNW,333,0.0,0.0,58,0.00,CLR,,0.01,WeatherDisplay:10.37,2017-05-26 15:58:00,
2017-05-26 12:03:00,85.8,68.3,30.01,NNW,333,0.0,0.0,56,0.00,CLR,,0.01,WeatherDisplay:10.37,2017-05-26 16:03:00,
2017-05-26 12:08:00,86.0,68.5,30.01,NNW,333,0.0,0.0,56,0.00,CLR,,0.01,WeatherDisplay:10.37,2017-05-26 16:08:00,
2017-05-26 12:13:00,85.7,68.2,30.01,NNW,333,0.0,0.0,56,0.00,CLR,,0.01,WeatherDisplay:10.37,2017-05-26 16:13:00,
2017-05-26 12:18:00,85.6,68.1,30.01,NNW,333,0.0,0.0,56,0.00,CLR,,0.01,WeatherDisplay:10.37,2017-05-26 16:18:00,
2017-05-26 12:23:00,85.7,67.7,30.01,NNW,333,0.0,0.0,55,0.00,CLR,,0.01,WeatherDisplay:10.37,2017-05-26 16:23:00,
2017-05-26 12:28:00,86.1,69.1,30.01,NNW,333,0.0,0.0,57,0.00,CLR,,0.01,WeatherDisplay:10.37,2017-05-26 16:28:00,
2017-05-26 12:32:00,86.5,68.9,30.01,NNW,333,0.0,0.0,56,0.00,CLR,,0.01,WeatherDisplay:10.37,2017-05-26 16:32:00,
2017-05-26 12:37:00,86.7,68.6,30.01,NNW,333,0.0,0.0,55,0.00,CLR,,0.01,WeatherDisplay:10.37,2017-05-26 16:37:00,
2017-05-26 12:42:00,86.5,69.5,30.01,NNW,333,0.0,0.0,57,0.00,CLR,,0.01,WeatherDisplay:10.37,2017-05-26 16:42:00,
2017-05-26 12:47:00,86.6,69.6,30.01,NNW,333,0.0,0.0,57,0.00,CLR,,0.01,WeatherDisplay:10.37,2017-05-26 16:47:00,
2017-05-26 12:52:00,86.2,69.2,30.00,NNW,333,0.0,0.0,57,0.00,CLR,,0.01,WeatherDisplay:10.37,2017-05-26 16:52:00,
2017-05-26 12:57:00,86.1,68.6,30.00,WNW,294,0.0,0.0,56,0.00,CLR,,0.01,WeatherDisplay:10.37,2017-05-26 16:57:00,
2017-05-26 13:02:00,85.7,69.2,30.00,WNW,295,0.0,0.1,58,0.00,CLR,,0.01,WeatherDisplay:10.37,2017-05-26 17:02:00,
2017-05-26 13:07:00,85.7,69.2,30.00,WNW,295,0.0,0.0,58,0.00,CLR,,0.01,WeatherDisplay:10.37,2017-05-26 17:07:00,
2017-05-26 13:12:00,85.7,69.2,30.00,WNW,296,0.0,0.0,58,0.00,CLR,,0.01,WeatherDisplay:10.37,2017-05-26 17:12:00,
2017-05-26 13:17:00,85.9,68.9,30.00,WNW,296,0.0,0.0,57,0.00,CLR,,0.01,WeatherDisplay:10.37,2017-05-26 17:17:00,
2017-05-26 13:22:00,85.0,68.6,30.00,WNW,296,1.2,0.0,58,0.00,CLR,,0.01,WeatherDisplay:10.37,2017-05-26 17:22:00,
2017-05-26 13:27:00,84.7,68.8,30.00,WNW,296,0.0,0.0,59,0.00,CLR,,0.01,WeatherDisplay:10.37,2017-05-26 17:27:00,
2017-05-26 13:32:00,85.0,69.1,30.00,WNW,298,3.5,3.5,59,0.00,CLR,,0.01,WeatherDisplay:10.37,2017-05-26 17:32:00,
2017-05-26 13:37:00,84.6,68.7,29.99,WNW,299,3.5,3.5,59,0.00,CLR,,0.01,WeatherDisplay:10.37,2017-05-26 17:37:00,
2017-05-26 13:42:00,83.6,67.8,29.99,WNW,300,3.5,3.5,59,0.00,CLR,,0.01,WeatherDisplay:10.37,2017-05-26 17:42:00,
2017-05-26 13:47:00,83.3,68.4,29.99,WNW,300,1.2,0.0,61,0.00,CLR,,0.01,WeatherDisplay:10.37,2017-05-26 17:47:00,
2017-05-26 13:52:00,83.5,69.1,29.99,NW,304,0.0,0.0,62,0.00,CLR,,0.01,WeatherDisplay:10.37,2017-05-26 17:52:00,
2017-05-26 13:57:00,84.2,69.3,29.99,NW,305,0.0,0.0,61,0.00,CLR,,0.01,WeatherDisplay:10.37,2017-05-26 17:57:00,
2017-05-26 14:02:00,84.4,69.5,29.99,NW,305,0.0,0.0,61,0.00,CLR,,0.01,WeatherDisplay:10.37,2017-05-26 18:02:00,
2017-05-26 14:07:00,84.5,69.6,29.99,NW,305,5.0,5.0,61,0.00,CLR,,0.01,WeatherDisplay:10.37,2017-05-26 18:07:00,
2017-05-26 14:12:00,84.0,69.6,29.99,NW,305,1.2,1.2,62,0.00,CLR,,0.01,WeatherDisplay:10.37,2017-05-26 18:12:00,
2017-05-26 14:17:00,84.1,69.2,29.98,NW,306,2.3,2.3,61,0.00,CLR,,0.01,WeatherDisplay:10.37,2017-05-26 18:17:00,
2017-05-26 14:22:00,84.5,68.6,29.98,NW,310,1.2,0.0,59,0.00,CLR,,0.01,WeatherDisplay:10.37,2017-05-26 18:22:00,
2017-05-26 14:27:00,84.6,69.2,29.98,NW,309,2.3,2.3,60,0.00,CLR,,0.01,WeatherDisplay:10.37,2017-05-26 18:27:00,
2017-05-26 14:32:00,84.2,68.8,29.98,NW,309,3.5,3.5,60,0.00,CLR,,0.01,WeatherDisplay:10.37,2017-05-26 18:32:00,
2017-05-26 14:37:00,84.0,69.1,29.98,NW,309,3.5,3.5,61,0.00,CLR,,0.01,WeatherDisplay:10.37,2017-05-26 18:37:00,
2017-05-26 14:42:00,83.6,68.7,29.98,NW,309,1.0,1.0,61,0.00,CLR,,0.01,WeatherDisplay:10.37,2017-05-26 18:42:00,
2017-05-26 14:47:00,83.4,69.0,29.98,WNW,299,3.5,3.5,62,0.00,CLR,,0.01,WeatherDisplay:10.37,2017-05-26 18:47:00,
2017-05-26 14:52:00,84.0,69.6,29.98,WNW,299,0.0,0.0,62,0.00,CLR,,0.01,WeatherDisplay:10.37,2017-05-26 18:52:00,
2017-05-26 14:57:00,83.7,69.3,29.98,WNW,300,2.3,2.3,62,0.00,CLR,,0.01,WeatherDisplay:10.37,2017-05-26 18:57:00,
2017-05-26 15:02:00,83.7,69.3,29.97,WNW,300,0.0,0.0,62,0.00,CLR,,0.01,WeatherDisplay:10.37,2017-05-26 19:02:00,
2017-05-26 15:07:00,83.5,69.6,29.97,NW,304,3.0,3.0,63,0.00,CLR,,0.01,WeatherDisplay:10.37,2017-05-26 19:07:00,
2017-05-26 15:12:00,83.6,70.1,29.97,NW,304,3.5,3.5,64,0.00,CLR,,0.01,WeatherDisplay:10.37,2017-05-26 19:12:00,
2017-05-26 15:17:00,83.5,70.0,29.97,NW,306,3.5,3.5,64,0.00,CLR,,0.01,WeatherDisplay:10.37,2017-05-26 19:17:00,
2017-05-26 15:22:00,83.1,69.2,29.97,NW,306,1.0,0.0,63,0.00,CLR,,0.01,WeatherDisplay:10.37,2017-05-26 19:22:00,
2017-05-26 15:27:00,82.5,70.0,29.97,West,275,2.0,2.0,66,0.00,CLR,,0.01,WeatherDisplay:10.37,2017-05-26 19:27:00,
2017-05-26 15:37:00,82.8,70.3,29.97,WNW,288,0.0,0.0,66,0.00,CLR,,0.01,WeatherDisplay:10.37,2017-05-26 19:37:00,
2017-05-26 15:42:00,83.2,70.2,29.97,WNW,291,0.0,0.0,65,0.00,CLR,,0.01,WeatherDisplay:10.37,2017-05-26 19:42:00,
2017-05-26 15:47:00,84.1,70.1,29.97,WNW,291,3.5,0.0,63,0.00,CLR,,0.01,WeatherDisplay:10.37,2017-05-26 19:47:00,
2017-05-26 15:52:00,84.3,70.3,29.97,WNW,291,0.0,0.0,63,0.00,CLR,,0.01,WeatherDisplay:10.37,2017-05-26 19:52:00,
2017-05-26 15:57:00,84.1,70.6,29.96,WNW,291,0.0,0.0,64,0.00,CLR,,0.01,WeatherDisplay:10.37,2017-05-26 19:57:00,
2017-05-26 16:02:00,83.4,70.4,29.96,WNW,288,2.0,2.0,65,0.00,CLR,,0.01,WeatherDisplay:10.37,2017-05-26 20:02:00,
2017-05-26 16:07:00,82.9,70.4,29.96,West,273,0.0,0.0,66,0.00,CLR,,0.01,WeatherDisplay:10.37,2017-05-26 20:07:00,
2017-05-26 16:12:00,82.9,69.9,29.96,West,275,0.0,0.0,65,0.00,CLR,,0.01,WeatherDisplay:10.37,2017-05-26 20:12:00,
2017-05-26 16:17:00,82.8,70.3,29.96,West,275,1.2,0.0,66,0.00,CLR,,0.01,WeatherDisplay:10.37,2017-05-26 20:17:00,
2017-05-26 16:22:00,82.8,70.7,29.96,West,275,0.0,0.0,67,0.00,CLR,,0.01,WeatherDisplay:10.37,2017-05-26 20:22:00,
2017-05-26 16:27:00,83.4,71.3,29.96,West,275,0.0,0.0,67,0.00,CLR,,0.01,WeatherDisplay:10.37,2017-05-26 20:27:00,
2017-05-26 16:32:00,83.9,71.3,29.96,West,277,0.0,0.0,66,0.00,CLR,,0.01,WeatherDisplay:10.37,2017-05-26 20:32:00,
2017-05-26 16:37:00,84.1,71.1,29.96,West,277,0.0,0.0,65,0.00,CLR,,0.01,WeatherDisplay:10.37,2017-05-26 20:37:00,
2017-05-26 16:42:00,83.5,70.5,29.96,West,277,0.0,0.0,65,0.00,CLR,,0.01,WeatherDisplay:10.37,2017-05-26 20:42:00,
2017-05-26 16:47:00,83.7,71.6,29.96,WNW,285,0.0,0.8,67,0.00,CLR,,0.01,WeatherDisplay:10.37,2017-05-26 20:47:00,
2017-05-26 16:52:00,83.9,70.9,29.95,WNW,285,2.0,0.0,65,0.00,CLR,,0.01,WeatherDisplay:10.37,2017-05-26 20:52:00,
2017-05-26 16:57:00,83.6,71.0,29.95,WNW,286,2.3,2.3,66,0.00,CLR,,0.01,WeatherDisplay:10.37,2017-05-26 20:57:00,
2017-05-26 17:02:00,83.6,71.5,29.96,WNW,286,1.2,0.0,67,0.00,CLR,,0.01,WeatherDisplay:10.37,2017-05-26 21:02:00,
2017-05-26 17:07:00,83.3,70.8,29.96,WNW,286,0.0,0.0,66,0.00,CLR,,0.01,WeatherDisplay:10.37,2017-05-26 21:07:00,
2017-05-26 17:12:00,83.0,70.9,29.96,West,277,0.0,0.0,67,0.00,CLR,,0.01,WeatherDisplay:10.37,2017-05-26 21:12:00,
2017-05-26 17:17:00,82.9,70.8,29.96,West,279,0.0,0.0,67,0.00,CLR,,0.01,WeatherDisplay:10.37,2017-05-26 21:17:00,
2017-05-26 17:22:00,82.6,71.0,29.96,West,280,0.0,0.0,68,0.00,CLR,,0.01,WeatherDisplay:10.37,2017-05-26 21:22:00,
2017-05-26 17:27:00,82.6,71.0,29.95,WNW,295,5.8,5.8,68,0.00,CLR,,0.01,WeatherDisplay:10.37,2017-05-26 21:27:00,
2017-05-26 17:32:00,82.5,71.3,29.96,WNW,294,0.0,0.0,69,0.00,CLR,,0.01,WeatherDisplay:10.37,2017-05-26 21:32:00,
2017-05-26 17:37:00,82.5,71.3,29.96,WNW,294,0.0,0.0,69,0.00,CLR,,0.01,WeatherDisplay:10.37,2017-05-26 21:37:00,
2017-05-26 17:42:00,81.9,70.7,29.95,WNW,294,0.0,0.0,69,0.00,CLR,,0.01,WeatherDisplay:10.37,2017-05-26 21:42:00,
2017-05-26 17:47:00,81.4,71.1,29.96,WNW,291,0.0,0.0,71,0.00,CLR,,0.01,WeatherDisplay:10.37,2017-05-26 21:47:00,
2017-05-26 17:52:00,81.5,71.2,29.96,WNW,291,0.0,0.0,71,0.00,CLR,,0.01,WeatherDisplay:10.37,2017-05-26 21:52:00,
2017-05-26 17:57:00,81.4,71.1,29.95,WNW,291,1.2,0.0,71,0.00,CLR,,0.01,WeatherDisplay:10.37,2017-05-26 21:57:00,
2017-05-26 18:02:00,81.3,71.0,29.96,WNW,292,3.5,3.5,71,0.00,CLR,,0.01,WeatherDisplay:10.37,2017-05-26 22:02:00,
2017-05-26 18:07:00,81.2,70.9,29.96,WNW,290,2.3,0.0,71,0.00,CLR,,0.01,WeatherDisplay:10.37,2017-05-26 22:07:00,
2017-05-26 18:12:00,81.1,70.8,29.96,WNW,290,0.0,0.0,71,0.00,CLR,,0.01,WeatherDisplay:10.37,2017-05-26 22:12:00,
2017-05-26 18:17:00,81.3,71.4,29.96,WNW,290,1.2,0.0,72,0.00,CLR,,0.01,WeatherDisplay:10.37,2017-05-26 22:17:00,
2017-05-26 18:22:00,81.4,71.5,29.96,WNW,290,0.0,0.0,72,0.00,CLR,,0.01,WeatherDisplay:10.37,2017-05-26 22:22:00,
2017-05-26 18:27:00,81.4,71.5,29.96,WNW,292,0.0,0.0,72,0.00,CLR,,0.01,WeatherDisplay:10.37,2017-05-26 22:27:00,
2017-05-26 18:32:00,81.3,71.4,29.96,WNW,292,0.0,0.0,72,0.00,CLR,,0.01,WeatherDisplay:10.37,2017-05-26 22:32:00,
2017-05-26 18:36:00,81.2,71.3,29.96,WNW,289,0.0,0.0,72,0.00,CLR,,0.01,WeatherDisplay:10.37,2017-05-26 22:36:00,
2017-05-26 18:41:00,81.0,71.5,29.96,WNW,289,0.0,0.0,73,0.00,CLR,,0.01,WeatherDisplay:10.37,2017-05-26 22:41:00,
2017-05-26 18:46:00,80.9,71.4,29.96,WNW,286,0.0,0.0,73,0.00,CLR,,0.01,WeatherDisplay:10.37,2017-05-26 22:46:00,
2017-05-26 18:51:00,80.9,71.4,29.96,West,276,5.0,5.0,73,0.00,CLR,,0.01,WeatherDisplay:10.37,2017-05-26 22:51:00,
2017-05-26 18:56:00,80.7,71.2,29.96,West,269,2.3,2.3,73,0.00,CLR,,0.01,WeatherDisplay:10.37,2017-05-26 22:56:00,
2017-05-26 19:01:00,80.4,71.3,29.96,West,261,2.3,2.3,74,0.00,CLR,,0.01,WeatherDisplay:10.37,2017-05-26 23:01:00,
2017-05-26 19:06:00,80.3,71.3,29.96,West,261,1.0,0.0,74,0.00,CLR,,0.01,WeatherDisplay:10.37,2017-05-26 23:06:00,
2017-05-26 19:11:00,80.3,71.6,29.96,West,261,0.0,0.0,75,0.00,CLR,,0.01,WeatherDisplay:10.37,2017-05-26 23:11:00,
2017-05-26 19:16:00,80.3,71.6,29.96,West,261,0.0,0.0,75,0.00,CLR,,0.01,WeatherDisplay:10.37,2017-05-26 23:16:00,
2017-05-26 19:21:00,80.2,71.9,29.96,West,263,0.0,0.0,76,0.00,CLR,,0.01,WeatherDisplay:10.37,2017-05-26 23:21:00,
2017-05-26 19:26:00,80.1,71.8,29.96,West,266,1.2,0.0,76,0.00,CLR,,0.01,WeatherDisplay:10.37,2017-05-26 23:26:00,
2017-05-26 19:31:00,80.1,71.8,29.96,West,267,0.0,0.0,76,0.00,CLR,,0.01,WeatherDisplay:10.37,2017-05-26 23:31:00,
2017-05-26 19:36:00,79.9,71.7,29.96,West,269,0.0,0.0,76,0.00,CLR,,0.01,WeatherDisplay:10.37,2017-05-26 23:36:00,
2017-05-26 19:41:00,79.7,71.8,29.96,West,269,0.0,0.0,77,0.00,CLR,,0.01,WeatherDisplay:10.37,2017-05-26 23:41:00,
2017-05-26 19:46:00,79.7,71.8,29.96,West,269,0.0,0.0,77,0.00,CLR,,0.01,WeatherDisplay:10.37,2017-05-26 23:46:00,
2017-05-26 19:51:00,79.6,71.8,29.96,West,269,0.0,0.0,77,0.00,CLR,,0.01,WeatherDisplay:10.37,2017-05-26 23:51:00,
2017-05-26 19:56:00,79.5,72.0,29.97,West,269,0.0,0.0,78,0.00,CLR,,0.01,WeatherDisplay:10.37,2017-05-26 23:56:00,
2017-05-26 20:01:00,79.3,71.8,29.97,West,268,2.0,0.0,78,0.00,CLR,,0.01,WeatherDisplay:10.37,2017-05-27 00:01:00,
2017-05-26 20:06:00,79.0,71.9,29.97,West,265,1.2,1.2,79,0.00,CLR,,0.01,WeatherDisplay:10.37,2017-05-27 00:06:00,
2017-05-26 20:11:00,78.8,71.7,29.97,West,265,2.0,2.0,79,0.00,CLR,,0.01,WeatherDisplay:10.37,2017-05-27 00:11:00,
2017-05-26 20:16:00,78.7,72.0,29.97,West,265,0.0,0.0,80,0.00,CLR,,0.01,WeatherDisplay:10.37,2017-05-27 00:16:00,
2017-05-26 20:21:00,78.5,72.2,29.97,West,265,0.0,0.0,81,0.00,CLR,,0.01,WeatherDisplay:10.37,2017-05-27 00:21:00,
2017-05-26 20:26:00,78.4,72.1,29.97,West,262,4.6,4.6,81,0.00,CLR,,0.01,WeatherDisplay:10.37,2017-05-27 00:26:00,
2017-05-26 20:31:00,78.3,72.0,29.97,West,261,0.0,0.0,81,0.00,CLR,,0.01,WeatherDisplay:10.37,2017-05-27 00:31:00,
2017-05-26 20:36:00,78.3,72.3,29.97,West,259,0.0,0.0,82,0.00,CLR,,0.01,WeatherDisplay:10.37,2017-05-27 00:36:00,
2017-05-26 20:41:00,78.3,72.3,29.98,West,259,0.0,0.0,82,0.00,CLR,,0.01,WeatherDisplay:10.37,2017-05-27 00:41:00,
2017-05-26 20:46:00,78.3,72.3,29.98,WSW,258,3.5,3.5,82,0.00,CLR,,0.01,WeatherDisplay:10.37,2017-05-27 00:46:00,
2017-05-26 20:51:00,78.3,72.7,29.98,SW,224,0.0,0.0,83,0.00,CLR,,0.01,WeatherDisplay:10.37,2017-05-27 00:51:00,
2017-05-26 20:56:00,78.2,72.6,29.98,SW,224,4.6,4.6,83,0.00,CLR,,0.01,WeatherDisplay:10.37,2017-05-27 00:56:00,
2017-05-26 21:01:00,78.2,72.6,29.98,SW,224,0.0,0.0,83,0.00,CLR,,0.01,WeatherDisplay:10.37,2017-05-27 01:01:00,
2017-05-26 21:06:00,78.2,72.6,29.98,SW,224,0.0,0.0,83,0.00,CLR,,0.01,WeatherDisplay:10.37,2017-05-27 01:06:00,
2017-05-26 21:11:00,78.2,72.6,29.98,SW,224,0.0,0.0,83,0.00,CLR,,0.01,WeatherDisplay:10.37,2017-05-27 01:11:00,
2017-05-26 21:16:00,78.2,72.6,29.98,SW,224,1.2,0.0,83,0.00,CLR,,0.01,WeatherDisplay:10.37,2017-05-27 01:16:00,
2017-05-26 21:22:00,78.2,72.6,29.99,South,181,0.0,0.0,83,0.00,CLR,,0.01,WeatherDisplay:10.37,2017-05-27 01:22:00,
2017-05-26 21:27:00,78.2,73.0,29.99,South,173,1.0,1.0,84,0.00,CLR,,0.01,WeatherDisplay:10.37,2017-05-27 01:27:00,
2017-05-26 21:32:00,78.2,73.0,29.99,South,173,0.0,0.0,84,0.00,CLR,,0.01,WeatherDisplay:10.37,2017-05-27 01:32:00,
2017-05-26 21:37:00,78.2,73.0,29.99,SSW,193,0.0,0.0,84,0.00,CLR,,0.01,WeatherDisplay:10.37,2017-05-27 01:37:00,
2017-05-26 21:42:00,78.2,73.0,29.99,SSW,194,0.0,0.0,84,0.00,CLR,,0.01,WeatherDisplay:10.37,2017-05-27 01:42:00,
2017-05-26 21:47:00,78.2,73.0,29.99,SSW,194,0.0,0.0,84,0.00,CLR,,0.01,WeatherDisplay:10.37,2017-05-27 01:47:00,
2017-05-26 21:52:00,78.2,73.0,30.00,SSW,194,0.0,0.0,84,0.00,CLR,,0.01,WeatherDisplay:10.37,2017-05-27 01:52:00,
2017-05-26 21:57:00,78.1,72.9,29.99,SSW,194,0.0,0.0,84,0.00,CLR,,0.01,WeatherDisplay:10.37,2017-05-27 01:57:00,
2017-05-26 22:02:00,78.1,73.2,29.99,SSW,194,0.0,0.0,85,0.00,CLR,,0.01,WeatherDisplay:10.37,2017-05-27 02:02:00,
2017-05-26 22:07:00,78.1,73.2,29.99,SSW,194,0.0,0.0,85,0.00,CLR,,0.01,WeatherDisplay:10.37,2017-05-27 02:07:00,
2017-05-26 22:12:00,78.1,73.2,30.00,SSW,194,0.0,0.0,85,0.00,CLR,,0.01,WeatherDisplay:10.37,2017-05-27 02:12:00,
2017-05-26 22:17:00,78.0,73.1,30.00,SSW,194,0.0,0.0,85,0.00,CLR,,0.01,WeatherDisplay:10.37,2017-05-27 02:17:00,
2017-05-26 22:22:00,78.1,73.2,30.00,SSW,194,0.0,0.0,85,0.00,CLR,,0.01,WeatherDisplay:10.37,2017-05-27 02:22:00,
2017-05-26 22:27:00,78.1,73.2,30.00,SSW,194,0.0,0.0,85,0.00,CLR,,0.01,WeatherDisplay:10.37,2017-05-27 02:27:00,
2017-05-26 22:32:00,78.1,73.2,30.00,SSW,194,0.0,0.0,85,0.00,CLR,,0.01,WeatherDisplay:10.37,2017-05-27 02:32:00,
2017-05-26 22:37:00,78.0,73.1,30.00,SSW,194,0.0,0.0,85,0.00,CLR,,0.01,WeatherDisplay:10.37,2017-05-27 02:37:00,